sensor_id;sensor_type;location;lat;lon;timestamp;pressure;altitude;pressure_sealevel;temperature;humidity
63019;BME280;49105;46.046;10.760;2023-02-15T00:00:20;97052.63;;;1.68;55.96
63019;BME280;49105;46.046;10.760;2023-02-15T00:02:45;97054.59;;;1.66;56.31
63019;BME280;49105;46.046;10.760;2023-02-15T00:05:20;97052.00;;;1.66;56.11
63019;BME280;49105;46.046;10.760;2023-02-15T00:07:54;97051.34;;;1.64;56.47
63019;BME280;49105;46.046;10.760;2023-02-15T00:10:29;97054.16;;;1.63;55.90
63019;BME280;49105;46.046;10.760;2023-02-15T00:13:01;97055.97;;;1.62;56.42
63019;BME280;49105;46.046;10.760;2023-02-15T00:15:26;97060.19;;;1.63;56.23
63019;BME280;49105;46.046;10.760;2023-02-15T00:17:58;97050.38;;;1.65;55.92
63019;BME280;49105;46.046;10.760;2023-02-15T00:20:27;97046.97;;;1.65;55.86
63019;BME280;49105;46.046;10.760;2023-02-15T00:23:01;97050.28;;;1.59;56.17
63019;BME280;49105;46.046;10.760;2023-02-15T00:25:27;97047.41;;;1.54;56.47
63019;BME280;49105;46.046;10.760;2023-02-15T00:27:53;97046.78;;;1.52;56.64
63019;BME280;49105;46.046;10.760;2023-02-15T00:30:18;97051.38;;;1.49;56.33
63019;BME280;49105;46.046;10.760;2023-02-15T00:32:50;97043.91;;;1.46;56.64
63019;BME280;49105;46.046;10.760;2023-02-15T00:35:16;97050.72;;;1.47;56.08
63019;BME280;49105;46.046;10.760;2023-02-15T00:37:50;97048.94;;;1.48;56.45
63019;BME280;49105;46.046;10.760;2023-02-15T00:40:26;97052.38;;;1.48;56.78
63019;BME280;49105;46.046;10.760;2023-02-15T00:42:58;97046.78;;;1.37;56.91
63019;BME280;49105;46.046;10.760;2023-02-15T00:45:32;97042.72;;;1.34;56.66
63019;BME280;49105;46.046;10.760;2023-02-15T00:48:07;97038.50;;;1.33;56.03
63019;BME280;49105;46.046;10.760;2023-02-15T00:50:38;97041.47;;;1.30;56.29
63019;BME280;49105;46.046;10.760;2023-02-15T00:53:09;97039.06;;;1.29;56.41
63019;BME280;49105;46.046;10.760;2023-02-15T00:55:44;97034.66;;;1.29;56.90
63019;BME280;49105;46.046;10.760;2023-02-15T00:58:10;97036.44;;;1.29;56.61
63019;BME280;49105;46.046;10.760;2023-02-15T01:00:47;97039.13;;;1.20;56.67
63019;BME280;49105;46.046;10.760;2023-02-15T01:03:19;97034.09;;;1.19;56.94
63019;BME280;49105;46.046;10.760;2023-02-15T01:05:48;97033.00;;;1.13;56.93
63019;BME280;49105;46.046;10.760;2023-02-15T01:08:17;97035.81;;;1.12;56.85
63019;BME280;49105;46.046;10.760;2023-02-15T01:10:43;97027.34;;;1.10;56.77
63019;BME280;49105;46.046;10.760;2023-02-15T01:13:20;97028.94;;;1.11;57.51
63019;BME280;49105;46.046;10.760;2023-02-15T01:16:08;97020.16;;;1.12;56.88
63019;BME280;49105;46.046;10.760;2023-02-15T01:21:55;97016.91;;;1.10;57.62
63019;BME280;49105;46.046;10.760;2023-02-15T01:24:23;97017.56;;;1.12;56.98
63019;BME280;49105;46.046;10.760;2023-02-15T01:26:52;97012.16;;;1.13;56.93
63019;BME280;49105;46.046;10.760;2023-02-15T01:29:27;97004.53;;;1.12;56.61
63019;BME280;49105;46.046;10.760;2023-02-15T01:31:52;97015.75;;;1.12;56.70
63019;BME280;49105;46.046;10.760;2023-02-15T01:34:29;97014.94;;;1.12;57.57
63019;BME280;49105;46.046;10.760;2023-02-15T01:37:04;97006.94;;;1.13;56.91
63019;BME280;49105;46.046;10.760;2023-02-15T01:39:29;97004.13;;;1.15;57.15
63019;BME280;49105;46.046;10.760;2023-02-15T01:42:01;97000.91;;;1.13;56.90
63019;BME280;49105;46.046;10.760;2023-02-15T01:47:26;96994.78;;;1.06;57.18
63019;BME280;49105;46.046;10.760;2023-02-15T01:50:07;97003.78;;;1.03;56.84
63019;BME280;49105;46.046;10.760;2023-02-15T01:52:42;97005.13;;;0.99;57.00
63019;BME280;49105;46.046;10.760;2023-02-15T01:55:15;96998.47;;;0.96;57.45
63019;BME280;49105;46.046;10.760;2023-02-15T01:57:47;96996.06;;;0.95;57.07
63019;BME280;49105;46.046;10.760;2023-02-15T02:00:14;96997.81;;;0.94;57.03
63019;BME280;49105;46.046;10.760;2023-02-15T02:03:00;96995.59;;;0.91;57.53
63019;BME280;49105;46.046;10.760;2023-02-15T02:05:35;96987.31;;;0.88;57.20
63019;BME280;49105;46.046;10.760;2023-02-15T02:08:03;96987.94;;;0.90;57.33
63019;BME280;49105;46.046;10.760;2023-02-15T02:10:28;96992.78;;;0.78;57.53
63019;BME280;49105;46.046;10.760;2023-02-15T02:12:57;96985.94;;;0.77;57.84
63019;BME280;49105;46.046;10.760;2023-02-15T02:16:14;96984.53;;;0.89;57.37
63019;BME280;49105;46.046;10.760;2023-02-15T02:41:48;96988.16;;;0.51;58.16
63019;BME280;49105;46.046;10.760;2023-02-15T02:44:35;96984.22;;;0.55;58.18
63019;BME280;49105;46.046;10.760;2023-02-15T02:49:48;96974.88;;;0.60;57.69
63019;BME280;49105;46.046;10.760;2023-02-15T02:52:42;96973.13;;;0.53;57.88
63019;BME280;49105;46.046;10.760;2023-02-15T02:55:29;96978.47;;;0.36;58.21
63019;BME280;49105;46.046;10.760;2023-02-15T03:04:02;96983.59;;;0.30;58.14
63019;BME280;49105;46.046;10.760;2023-02-15T03:06:47;96982.66;;;0.22;58.79
63019;BME280;49105;46.046;10.760;2023-02-15T03:11:51;96980.41;;;0.42;58.47
63019;BME280;49105;46.046;10.760;2023-02-15T03:14:24;96980.22;;;0.44;58.11
63019;BME280;49105;46.046;10.760;2023-02-15T03:17:01;96975.00;;;0.44;58.05
63019;BME280;49105;46.046;10.760;2023-02-15T03:19:34;96977.47;;;0.45;57.99
63019;BME280;49105;46.046;10.760;2023-02-15T03:22:08;96966.38;;;0.43;57.86
63019;BME280;49105;46.046;10.760;2023-02-15T03:24:53;96975.47;;;0.47;57.97
63019;BME280;49105;46.046;10.760;2023-02-15T03:27:31;96975.75;;;0.53;57.82
63019;BME280;49105;46.046;10.760;2023-02-15T03:29:59;96965.78;;;0.56;57.84
63019;BME280;49105;46.046;10.760;2023-02-15T03:32:33;96964.59;;;0.44;57.66
63019;BME280;49105;46.046;10.760;2023-02-15T03:35:09;96976.19;;;0.18;58.56
63019;BME280;49105;46.046;10.760;2023-02-15T03:37:49;96970.69;;;0.13;58.60
63019;BME280;49105;46.046;10.760;2023-02-15T03:40:28;96972.13;;;0.16;58.26
63019;BME280;49105;46.046;10.760;2023-02-15T03:43:18;96981.75;;;0.15;58.58
63019;BME280;49105;46.046;10.760;2023-02-15T03:45:57;96978.31;;;0.15;58.48
63019;BME280;49105;46.046;10.760;2023-02-15T03:48:32;96976.06;;;0.12;58.97
63019;BME280;49105;46.046;10.760;2023-02-15T03:51:09;96977.25;;;0.09;58.78
63019;BME280;49105;46.046;10.760;2023-02-15T03:53:56;96973.00;;;0.08;58.90
63019;BME280;49105;46.046;10.760;2023-02-15T03:56:23;96975.16;;;0.05;58.86
63019;BME280;49105;46.046;10.760;2023-02-15T03:58:49;96974.16;;;0.06;58.68
63019;BME280;49105;46.046;10.760;2023-02-15T04:01:37;96975.78;;;0.07;58.80
63019;BME280;49105;46.046;10.760;2023-02-15T04:04:36;96970.84;;;0.12;58.81
63019;BME280;49105;46.046;10.760;2023-02-15T04:07:04;96978.66;;;0.12;58.60
63019;BME280;49105;46.046;10.760;2023-02-15T04:09:33;96977.00;;;-0.04;58.93
63019;BME280;49105;46.046;10.760;2023-02-15T04:12:34;96977.09;;;0.03;58.52
63019;BME280;49105;46.046;10.760;2023-02-15T04:15:04;96970.06;;;-0.12;58.88
63019;BME280;49105;46.046;10.760;2023-02-15T04:17:48;96977.22;;;-0.14;59.17
63019;BME280;49105;46.046;10.760;2023-02-15T04:20:25;96969.25;;;-0.12;59.25
63019;BME280;49105;46.046;10.760;2023-02-15T04:23:09;96968.25;;;-0.11;59.09
63019;BME280;49105;46.046;10.760;2023-02-15T04:25:53;96970.06;;;-0.12;59.04
63019;BME280;49105;46.046;10.760;2023-02-15T04:28:21;96972.47;;;-0.10;58.92
63019;BME280;49105;46.046;10.760;2023-02-15T04:30:53;96967.75;;;-0.07;59.05
63019;BME280;49105;46.046;10.760;2023-02-15T04:33:24;96966.59;;;-0.04;59.16
63019;BME280;49105;46.046;10.760;2023-02-15T04:36:27;96964.91;;;0.03;59.11
63019;BME280;49105;46.046;10.760;2023-02-15T04:38:52;96964.75;;;0.05;58.69
63019;BME280;49105;46.046;10.760;2023-02-15T04:41:24;96966.34;;;0.06;59.02
63019;BME280;49105;46.046;10.760;2023-02-15T04:43:49;96964.38;;;0.08;58.58
63019;BME280;49105;46.046;10.760;2023-02-15T04:46:21;96960.81;;;0.09;58.69
63019;BME280;49105;46.046;10.760;2023-02-15T04:48:56;96961.25;;;0.12;58.67
63019;BME280;49105;46.046;10.760;2023-02-15T04:51:21;96958.50;;;0.14;58.85
63019;BME280;49105;46.046;10.760;2023-02-15T04:53:56;96956.88;;;0.13;58.47
63019;BME280;49105;46.046;10.760;2023-02-15T04:56:24;96958.69;;;0.04;58.47
63019;BME280;49105;46.046;10.760;2023-02-15T04:58:53;96949.34;;;-0.05;58.93
63019;BME280;49105;46.046;10.760;2023-02-15T05:01:18;96959.81;;;-0.13;59.20
63019;BME280;49105;46.046;10.760;2023-02-15T05:03:53;96957.44;;;-0.23;59.31
63019;BME280;49105;46.046;10.760;2023-02-15T05:06:19;96953.56;;;-0.27;59.26
63019;BME280;49105;46.046;10.760;2023-02-15T05:08:44;96959.75;;;-0.28;59.37
63019;BME280;49105;46.046;10.760;2023-02-15T05:11:09;96952.91;;;-0.29;59.55
63019;BME280;49105;46.046;10.760;2023-02-15T05:13:41;96950.78;;;-0.26;59.44
63019;BME280;49105;46.046;10.760;2023-02-15T05:16:16;96952.38;;;-0.16;59.11
63019;BME280;49105;46.046;10.760;2023-02-15T05:18:44;96952.81;;;-0.13;59.08
63019;BME280;49105;46.046;10.760;2023-02-15T05:21:13;96948.31;;;-0.19;59.37
63019;BME280;49105;46.046;10.760;2023-02-15T05:23:47;96958.47;;;-0.32;59.27
63019;BME280;49105;46.046;10.760;2023-02-15T05:26:23;96960.31;;;-0.41;59.64
63019;BME280;49105;46.046;10.760;2023-02-15T05:29:08;96962.06;;;-0.41;59.46
63019;BME280;49105;46.046;10.760;2023-02-15T05:31:43;96960.59;;;-0.36;59.42
63019;BME280;49105;46.046;10.760;2023-02-15T05:34:12;96965.63;;;-0.34;59.36
63019;BME280;49105;46.046;10.760;2023-02-15T05:36:47;96958.47;;;-0.32;59.42
63019;BME280;49105;46.046;10.760;2023-02-15T05:39:13;96961.31;;;-0.19;59.29
63019;BME280;49105;46.046;10.760;2023-02-15T05:41:47;96960.22;;;-0.02;59.14
63019;BME280;49105;46.046;10.760;2023-02-15T05:44:13;96959.59;;;-0.04;58.48
63019;BME280;49105;46.046;10.760;2023-02-15T05:46:44;96964.59;;;-0.25;59.25
63019;BME280;49105;46.046;10.760;2023-02-15T05:49:13;96961.88;;;-0.32;59.34
63019;BME280;49105;46.046;10.760;2023-02-15T05:51:41;96957.81;;;-0.34;59.35
63019;BME280;49105;46.046;10.760;2023-02-15T05:54:07;96958.09;;;-0.29;59.55
63019;BME280;49105;46.046;10.760;2023-02-15T05:56:45;96964.16;;;-0.29;59.42
63019;BME280;49105;46.046;10.760;2023-02-15T05:59:17;96971.75;;;-0.27;58.98
63019;BME280;49105;46.046;10.760;2023-02-15T06:01:51;96966.91;;;-0.30;59.35
63019;BME280;49105;46.046;10.760;2023-02-15T06:04:26;96969.16;;;-0.27;59.12
63019;BME280;49105;46.046;10.760;2023-02-15T06:06:51;96966.34;;;-0.17;59.21
63019;BME280;49105;46.046;10.760;2023-02-15T06:09:17;96972.72;;;-0.20;59.14
63019;BME280;49105;46.046;10.760;2023-02-15T06:11:49;96970.44;;;-0.23;58.81
63019;BME280;49105;46.046;10.760;2023-02-15T06:17:23;96980.09;;;-0.32;58.98
63019;BME280;49105;46.046;10.760;2023-02-15T06:19:49;96978.28;;;-0.31;59.12
63019;BME280;49105;46.046;10.760;2023-02-15T06:22:26;96981.22;;;-0.34;60.15
63019;BME280;49105;46.046;10.760;2023-02-15T06:24:58;96979.66;;;-0.43;59.56
63019;BME280;49105;46.046;10.760;2023-02-15T06:27:24;96980.50;;;-0.51;59.79
63019;BME280;49105;46.046;10.760;2023-02-15T06:29:49;96984.84;;;-0.43;59.64
63019;BME280;49105;46.046;10.760;2023-02-15T06:32:15;96982.53;;;-0.38;59.51
63019;BME280;49105;46.046;10.760;2023-02-15T06:34:41;96991.16;;;-0.38;59.78
63019;BME280;49105;46.046;10.760;2023-02-15T06:37:06;96987.59;;;-0.37;59.58
63019;BME280;49105;46.046;10.760;2023-02-15T06:39:39;96994.56;;;-0.37;59.69
63019;BME280;49105;46.046;10.760;2023-02-15T06:42:11;96996.50;;;-0.31;59.72
63019;BME280;49105;46.046;10.760;2023-02-15T06:44:36;97000.72;;;-0.30;59.49
63019;BME280;49105;46.046;10.760;2023-02-15T06:47:11;96991.66;;;-0.42;59.51
63019;BME280;49105;46.046;10.760;2023-02-15T06:49:42;96983.56;;;-0.47;59.65
63019;BME280;49105;46.046;10.760;2023-02-15T06:52:07;96992.66;;;-0.43;59.60
63019;BME280;49105;46.046;10.760;2023-02-15T06:54:42;96994.28;;;-0.42;59.57
63019;BME280;49105;46.046;10.760;2023-02-15T06:57:10;96993.00;;;-0.46;60.07
63019;BME280;49105;46.046;10.760;2023-02-15T06:59:39;96993.47;;;-0.43;59.94
63019;BME280;49105;46.046;10.760;2023-02-15T07:02:14;96994.75;;;-0.39;59.71
63019;BME280;49105;46.046;10.760;2023-02-15T07:04:40;96991.97;;;-0.37;59.68
63019;BME280;49105;46.046;10.760;2023-02-15T07:07:13;96985.81;;;-0.36;60.00
63019;BME280;49105;46.046;10.760;2023-02-15T07:09:44;96982.84;;;-0.33;59.52
63019;BME280;49105;46.046;10.760;2023-02-15T07:12:16;96986.28;;;-0.33;59.65
63019;BME280;49105;46.046;10.760;2023-02-15T07:15:00;96982.50;;;-0.30;59.38
63019;BME280;49105;46.046;10.760;2023-02-15T07:17:31;96985.41;;;-0.25;59.59
63019;BME280;49105;46.046;10.760;2023-02-15T07:20:05;96982.75;;;-0.17;59.62
63019;BME280;49105;46.046;10.760;2023-02-15T07:22:38;96978.50;;;-0.10;59.42
63019;BME280;49105;46.046;10.760;2023-02-15T07:25:05;96971.97;;;-0.06;59.58
63019;BME280;49105;46.046;10.760;2023-02-15T07:27:31;96979.09;;;0.01;59.41
63019;BME280;49105;46.046;10.760;2023-02-15T07:29:57;96976.16;;;-0.05;59.64
63019;BME280;49105;46.046;10.760;2023-02-15T07:32:30;96971.84;;;-0.12;59.35
63019;BME280;49105;46.046;10.760;2023-02-15T07:35:02;96971.72;;;-0.19;59.64
63019;BME280;49105;46.046;10.760;2023-02-15T07:37:39;96970.16;;;-0.28;59.55
63019;BME280;49105;46.046;10.760;2023-02-15T07:40:14;96972.44;;;-0.33;59.84
63019;BME280;49105;46.046;10.760;2023-02-15T07:42:40;96979.28;;;-0.32;59.87
63019;BME280;49105;46.046;10.760;2023-02-15T07:45:08;96972.91;;;-0.30;60.15
63019;BME280;49105;46.046;10.760;2023-02-15T07:47:37;96975.97;;;-0.26;60.12
63019;BME280;49105;46.046;10.760;2023-02-15T07:50:02;96975.34;;;-0.28;59.67
63019;BME280;49105;46.046;10.760;2023-02-15T07:52:28;96977.97;;;-0.28;59.95
63019;BME280;49105;46.046;10.760;2023-02-15T07:54:59;96973.56;;;-0.28;60.27
63019;BME280;49105;46.046;10.760;2023-02-15T07:57:31;96970.50;;;-0.31;60.07
63019;BME280;49105;46.046;10.760;2023-02-15T07:59:57;96967.72;;;-0.30;60.19
63019;BME280;49105;46.046;10.760;2023-02-15T08:02:32;96966.56;;;-0.27;60.14
63019;BME280;49105;46.046;10.760;2023-02-15T08:05:07;96963.78;;;-0.26;59.91
63019;BME280;49105;46.046;10.760;2023-02-15T08:07:35;96962.81;;;-0.24;60.00
63019;BME280;49105;46.046;10.760;2023-02-15T08:10:08;96964.09;;;-0.20;60.00
63019;BME280;49105;46.046;10.760;2023-02-15T08:12:33;96958.38;;;-0.16;60.09
63019;BME280;49105;46.046;10.760;2023-02-15T08:15:10;96960.00;;;-0.15;59.92
63019;BME280;49105;46.046;10.760;2023-02-15T08:17:45;96960.00;;;-0.15;59.93
63019;BME280;49105;46.046;10.760;2023-02-15T08:20:14;96953.47;;;-0.11;60.20
63019;BME280;49105;46.046;10.760;2023-02-15T08:22:49;96961.41;;;-0.04;60.26
63019;BME280;49105;46.046;10.760;2023-02-15T08:25:15;96959.69;;;0.03;59.72
63019;BME280;49105;46.046;10.760;2023-02-15T08:27:46;96950.41;;;0.09;59.87
63019;BME280;49105;46.046;10.760;2023-02-15T08:30:20;96951.66;;;0.13;59.91
63019;BME280;49105;46.046;10.760;2023-02-15T08:32:49;96956.34;;;0.17;59.52
63019;BME280;49105;46.046;10.760;2023-02-15T08:35:14;96957.44;;;0.23;59.34
63019;BME280;49105;46.046;10.760;2023-02-15T08:37:49;96952.88;;;0.25;59.70
63019;BME280;49105;46.046;10.760;2023-02-15T08:40:20;96949.00;;;0.21;59.29
63019;BME280;49105;46.046;10.760;2023-02-15T08:42:46;96943.81;;;0.21;59.61
63019;BME280;49105;46.046;10.760;2023-02-15T08:45:17;96944.75;;;0.20;59.46
63019;BME280;49105;46.046;10.760;2023-02-15T08:47:43;96947.31;;;0.28;59.58
63019;BME280;49105;46.046;10.760;2023-02-15T08:50:14;96940.06;;;0.38;59.44
63019;BME280;49105;46.046;10.760;2023-02-15T08:52:40;96934.59;;;0.48;59.38
63019;BME280;49105;46.046;10.760;2023-02-15T08:55:18;96929.31;;;0.56;59.37
63019;BME280;49105;46.046;10.760;2023-02-15T08:57:52;96940.47;;;0.65;59.07
63019;BME280;49105;46.046;10.760;2023-02-15T09:00:26;96926.47;;;0.81;59.24
63019;BME280;49105;46.046;10.760;2023-02-15T09:03:02;96921.78;;;1.06;59.10
63019;BME280;49105;46.046;10.760;2023-02-15T09:05:36;96919.16;;;1.35;59.34
63019;BME280;49105;46.046;10.760;2023-02-15T09:08:02;96925.13;;;1.65;58.80
63019;BME280;49105;46.046;10.760;2023-02-15T09:10:27;96918.44;;;1.99;58.86
63019;BME280;49105;46.046;10.760;2023-02-15T09:13:02;96924.19;;;2.37;58.14
63019;BME280;49105;46.046;10.760;2023-02-15T09:15:36;96913.94;;;2.64;58.16
63019;BME280;49105;46.046;10.760;2023-02-15T09:18:02;96918.63;;;2.75;57.75
63019;BME280;49105;46.046;10.760;2023-02-15T09:20:31;96916.34;;;2.93;57.69
63019;BME280;49105;46.046;10.760;2023-02-15T09:23:03;96914.44;;;3.15;57.45
63019;BME280;49105;46.046;10.760;2023-02-15T09:25:29;96906.03;;;3.27;57.31
63019;BME280;49105;46.046;10.760;2023-02-15T09:31:22;96901.47;;;3.48;56.38
63019;BME280;49105;46.046;10.760;2023-02-15T09:33:54;96906.13;;;3.46;56.27
63019;BME280;49105;46.046;10.760;2023-02-15T09:36:32;96902.88;;;3.44;56.15
63019;BME280;49105;46.046;10.760;2023-02-15T09:44:52;96890.03;;;3.56;56.02
63019;BME280;49105;46.046;10.760;2023-02-15T09:47:45;96892.50;;;3.71;55.52
63019;BME280;49105;46.046;10.760;2023-02-15T09:56:12;96882.84;;;4.11;55.31
63019;BME280;49105;46.046;10.760;2023-02-15T10:04:31;96868.94;;;4.44;54.68
63019;BME280;49105;46.046;10.760;2023-02-15T10:13:39;96850.97;;;4.74;54.39
63019;BME280;49105;46.046;10.760;2023-02-15T10:16:00;96852.13;;;4.85;53.85
63019;BME280;49105;46.046;10.760;2023-02-15T10:19:18;96851.13;;;4.92;53.67
63019;BME280;49105;46.046;10.760;2023-02-15T10:27:21;96835.06;;;5.27;53.33
63019;BME280;49105;46.046;10.760;2023-02-15T10:32:57;96829.91;;;5.45;53.07
63019;BME280;49105;46.046;10.760;2023-02-15T10:38:33;96820.88;;;5.66;52.51
63019;BME280;49105;46.046;10.760;2023-02-15T10:49:43;96799.53;;;6.13;52.00
63019;BME280;49105;46.046;10.760;2023-02-15T11:07:19;96772.88;;;6.89;50.94
63019;BME280;49105;46.046;10.760;2023-02-15T11:09:49;96770.16;;;6.96;50.75
63019;BME280;49105;46.046;10.760;2023-02-15T11:12:22;96759.09;;;7.06;50.81
63019;BME280;49105;46.046;10.760;2023-02-15T11:17:41;96748.19;;;7.20;50.42
63019;BME280;49105;46.046;10.760;2023-02-15T11:22:54;96743.22;;;7.42;49.98
63019;BME280;49105;46.046;10.760;2023-02-15T11:25:34;96733.50;;;7.55;49.66
63019;BME280;49105;46.046;10.760;2023-02-15T11:28:04;96725.75;;;7.71;49.27
63019;BME280;49105;46.046;10.760;2023-02-15T11:30:43;96725.19;;;7.81;48.84
63019;BME280;49105;46.046;10.760;2023-02-15T11:33:21;96717.72;;;7.90;48.56
63019;BME280;49105;46.046;10.760;2023-02-15T11:38:27;96708.47;;;8.11;48.35
63019;BME280;49105;46.046;10.760;2023-02-15T11:41:07;96702.59;;;8.20;47.85
63019;BME280;49105;46.046;10.760;2023-02-15T11:43:46;96691.72;;;8.29;47.80
63019;BME280;49105;46.046;10.760;2023-02-15T11:46:13;96692.97;;;8.38;47.21
63019;BME280;49105;46.046;10.760;2023-02-15T11:48:49;96688.25;;;8.52;47.05
63019;BME280;49105;46.046;10.760;2023-02-15T11:51:22;96693.28;;;8.65;47.11
63019;BME280;49105;46.046;10.760;2023-02-15T11:53:57;96692.09;;;8.73;46.51
63019;BME280;49105;46.046;10.760;2023-02-15T11:56:32;96681.47;;;8.84;47.05
63019;BME280;49105;46.046;10.760;2023-02-15T11:59:11;96672.38;;;8.92;46.39
63019;BME280;49105;46.046;10.760;2023-02-15T12:01:46;96669.28;;;8.95;46.33
63019;BME280;49105;46.046;10.760;2023-02-15T12:04:25;96662.03;;;9.02;46.36
63019;BME280;49105;46.046;10.760;2023-02-15T12:09:50;96656.78;;;9.19;45.68
63019;BME280;49105;46.046;10.760;2023-02-15T12:12:29;96657.97;;;9.28;45.62
63019;BME280;49105;46.046;10.760;2023-02-15T12:15:00;96647.03;;;9.36;45.40
63019;BME280;49105;46.046;10.760;2023-02-15T12:17:32;96643.50;;;9.48;45.18
63019;BME280;49105;46.046;10.760;2023-02-15T12:20:07;96635.19;;;9.56;44.97
63019;BME280;49105;46.046;10.760;2023-02-15T12:22:55;96633.72;;;9.65;44.47
63019;BME280;49105;46.046;10.760;2023-02-15T12:25:51;96625.38;;;9.73;44.72
63019;BME280;49105;46.046;10.760;2023-02-15T12:28:32;96615.44;;;9.80;44.09
63019;BME280;49105;46.046;10.760;2023-02-15T12:31:19;96608.44;;;9.91;44.46
63019;BME280;49105;46.046;10.760;2023-02-15T12:33:51;96611.56;;;10.05;44.14
63019;BME280;49105;46.046;10.760;2023-02-15T12:36:32;96613.25;;;10.16;43.69
63019;BME280;49105;46.046;10.760;2023-02-15T12:41:46;96593.91;;;10.54;42.46
63019;BME280;49105;46.046;10.760;2023-02-15T12:44:24;96596.88;;;10.58;42.89
63019;BME280;49105;46.046;10.760;2023-02-15T12:47:04;96595.56;;;10.60;42.71
63019;BME280;49105;46.046;10.760;2023-02-15T12:49:35;96591.56;;;10.58;42.91
63019;BME280;49105;46.046;10.760;2023-02-15T12:52:13;96581.19;;;10.78;41.85
63019;BME280;49105;46.046;10.760;2023-02-15T12:54:48;96579.25;;;11.01;41.50
63019;BME280;49105;46.046;10.760;2023-02-15T12:57:28;96575.25;;;10.98;41.35
63019;BME280;49105;46.046;10.760;2023-02-15T13:02:55;96569.13;;;10.92;41.16
63019;BME280;49105;46.046;10.760;2023-02-15T13:08:28;96556.06;;;11.13;41.04
63019;BME280;49105;46.046;10.760;2023-02-15T13:13:34;96545.88;;;11.32;40.63
63019;BME280;49105;46.046;10.760;2023-02-15T13:16:05;96550.34;;;11.31;40.65
63019;BME280;49105;46.046;10.760;2023-02-15T13:18:43;96535.50;;;11.30;40.53
63019;BME280;49105;46.046;10.760;2023-02-15T13:21:29;96537.38;;;11.30;40.52
63019;BME280;49105;46.046;10.760;2023-02-15T13:24:05;96530.78;;;11.37;40.17
63019;BME280;49105;46.046;10.760;2023-02-15T13:26:37;96532.47;;;11.49;39.95
63019;BME280;49105;46.046;10.760;2023-02-15T13:29:18;96535.66;;;11.56;39.51
63019;BME280;49105;46.046;10.760;2023-02-15T13:31:46;96537.03;;;11.63;39.80
63019;BME280;49105;46.046;10.760;2023-02-15T13:34:32;96533.63;;;11.68;39.13
63019;BME280;49105;46.046;10.760;2023-02-15T13:39:50;96522.50;;;11.71;39.03
63019;BME280;49105;46.046;10.760;2023-02-15T13:42:27;96520.41;;;11.78;38.97
63019;BME280;49105;46.046;10.760;2023-02-15T13:45:19;96521.56;;;11.87;38.57
63019;BME280;49105;46.046;10.760;2023-02-15T13:48:04;96517.06;;;11.93;38.52
63019;BME280;49105;46.046;10.760;2023-02-15T13:57:05;96513.59;;;11.87;38.31
63019;BME280;49105;46.046;10.760;2023-02-15T13:59:41;96511.44;;;11.84;38.36
63019;BME280;49105;46.046;10.760;2023-02-15T14:10:59;96512.59;;;12.09;35.77
63019;BME280;49105;46.046;10.760;2023-02-15T14:28:16;96506.41;;;12.76;31.03
63019;BME280;49105;46.046;10.760;2023-02-15T14:30:48;96505.34;;;12.77;31.78
63019;BME280;49105;46.046;10.760;2023-02-15T14:35:42;96501.06;;;12.66;31.54
63019;BME280;49105;46.046;10.760;2023-02-15T14:38:18;96509.56;;;12.73;30.65
63019;BME280;49105;46.046;10.760;2023-02-15T14:41:03;96511.16;;;12.74;30.85
63019;BME280;49105;46.046;10.760;2023-02-15T14:43:59;96502.41;;;12.74;31.16
63019;BME280;49105;46.046;10.760;2023-02-15T14:49:25;96507.44;;;12.70;31.47
63019;BME280;49105;46.046;10.760;2023-02-15T15:04:57;96506.91;;;12.73;30.72
63019;BME280;49105;46.046;10.760;2023-02-15T15:12:57;96509.31;;;12.64;30.11
63019;BME280;49105;46.046;10.760;2023-02-15T15:15:45;96520.97;;;12.58;31.03
63019;BME280;49105;46.046;10.760;2023-02-15T15:18:43;96515.94;;;12.52;31.42
63019;BME280;49105;46.046;10.760;2023-02-15T15:21:09;96516.41;;;12.33;31.92
63019;BME280;49105;46.046;10.760;2023-02-15T15:23:47;96515.84;;;12.21;32.61
63019;BME280;49105;46.046;10.760;2023-02-15T15:26:28;96513.44;;;12.20;32.87
63019;BME280;49105;46.046;10.760;2023-02-15T15:28:59;96519.00;;;12.13;33.11
63019;BME280;49105;46.046;10.760;2023-02-15T15:31:45;96517.41;;;12.12;33.23
63019;BME280;49105;46.046;10.760;2023-02-15T15:42:42;96533.78;;;11.51;34.43
63019;BME280;49105;46.046;10.760;2023-02-15T15:45:39;96527.84;;;11.34;34.52
63019;BME280;49105;46.046;10.760;2023-02-15T15:51:00;96541.16;;;10.75;35.50
63019;BME280;49105;46.046;10.760;2023-02-15T15:53:45;96539.88;;;10.50;36.44
63019;BME280;49105;46.046;10.760;2023-02-15T15:56:30;96552.69;;;10.36;36.40
63019;BME280;49105;46.046;10.760;2023-02-15T15:59:06;96558.41;;;10.28;36.34
63019;BME280;49105;46.046;10.760;2023-02-15T16:04:54;96562.22;;;9.93;37.49
63019;BME280;49105;46.046;10.760;2023-02-15T16:10:00;96562.25;;;9.77;37.48
63019;BME280;49105;46.046;10.760;2023-02-15T16:12:29;96563.63;;;9.62;38.06
63019;BME280;49105;46.046;10.760;2023-02-15T16:15:11;96564.78;;;9.50;38.45
63019;BME280;49105;46.046;10.760;2023-02-15T16:17:41;96562.41;;;9.31;38.58
63019;BME280;49105;46.046;10.760;2023-02-15T16:20:17;96575.13;;;9.17;38.51
63019;BME280;49105;46.046;10.760;2023-02-15T16:23:50;96569.44;;;9.09;38.62
63019;BME280;49105;46.046;10.760;2023-02-15T16:28:50;96580.16;;;8.85;39.56
63019;BME280;49105;46.046;10.760;2023-02-15T16:31:29;96586.94;;;8.81;39.54
63019;BME280;49105;46.046;10.760;2023-02-15T16:33:55;96591.50;;;8.86;39.66
63019;BME280;49105;46.046;10.760;2023-02-15T16:36:32;96585.44;;;8.85;39.80
63019;BME280;49105;46.046;10.760;2023-02-15T16:41:35;96590.44;;;8.70;39.46
63019;BME280;49105;46.046;10.760;2023-02-15T16:44:06;96600.78;;;8.60;39.61
63019;BME280;49105;46.046;10.760;2023-02-15T16:46:44;96598.22;;;8.48;39.95
63019;BME280;49105;46.046;10.760;2023-02-15T16:49:22;96603.97;;;8.33;40.48
63019;BME280;49105;46.046;10.760;2023-02-15T16:52:01;96616.38;;;8.21;40.41
63019;BME280;49105;46.046;10.760;2023-02-15T16:54:28;96617.19;;;8.10;41.04
63019;BME280;49105;46.046;10.760;2023-02-15T16:56:56;96613.56;;;7.99;41.09